createdAt,value
2022-11-15T00:05:01.298Z,8
2022-11-15T00:15:03.527Z,8
2022-11-15T00:25:05.804Z,8
2022-11-15T00:35:07.478Z,8
2022-11-15T00:45:10.118Z,8.2
2022-11-15T00:55:12.335Z,8.3
2022-11-15T01:05:14.329Z,8.3
2022-11-15T01:15:16.317Z,8.3
2022-11-15T01:25:18.001Z,8.4
2022-11-15T01:35:19.665Z,8.8
2022-11-15T01:45:21.982Z,9.7
2022-11-15T02:05:26.829Z,10.5
2022-11-15T02:15:29.353Z,10.6
2022-11-15T02:25:31.963Z,10.8
2022-11-15T02:35:34.071Z,10.9
2022-11-15T02:45:36.161Z,11
2022-11-15T02:55:38.340Z,11
2022-11-15T03:05:40.672Z,11.1
2022-11-15T03:15:43.099Z,11.3
2022-11-15T03:25:44.954Z,11.4
2022-11-15T03:35:46.760Z,11.2
2022-11-15T03:45:49.407Z,11.1
2022-11-15T03:55:52.013Z,11
2022-11-15T04:05:54.025Z,11
2022-11-15T04:15:56.536Z,11
2022-11-15T04:25:58.349Z,11
2022-11-15T04:36:00.511Z,10.8
2022-11-15T04:46:02.563Z,10.7
2022-11-15T04:56:04.727Z,11.1
2022-11-15T05:06:07.041Z,11.2
2022-11-15T05:16:09.042Z,11.3
2022-11-15T05:16:30.967Z,11.3
2022-11-15T05:26:19.119Z,11.3
2022-11-15T05:36:21.657Z,11.4
2022-11-15T05:46:24.033Z,11.5
2022-11-15T05:56:26.187Z,11.4
2022-11-15T06:06:28.415Z,11.6
2022-11-15T06:16:30.299Z,11.6
2022-11-15T06:26:32.651Z,11.7
2022-11-15T06:36:34.784Z,11.7
2022-11-15T06:56:39.023Z,11.4
2022-11-15T07:16:43.367Z,11.5
2022-11-15T07:26:45.470Z,11.6
2022-11-15T07:36:47.285Z,11.7
2022-11-15T08:26:58.816Z,12.2
2022-11-15T08:47:02.480Z,12.2
2022-11-15T08:57:04.568Z,12.4
2022-11-15T09:07:06.583Z,12.5
2022-11-15T09:17:08.589Z,12.4
2022-11-15T09:27:10.738Z,12.6
2022-11-15T09:37:13.298Z,12.7
2022-11-15T09:47:15.835Z,12.8
2022-11-15T09:57:18.355Z,12.9
2022-11-15T10:27:25.046Z,12.9
2022-11-15T11:07:33.203Z,13
2022-11-15T11:17:35.174Z,13.3
2022-11-15T11:27:37.265Z,13.5
2022-11-15T11:47:42.060Z,13.9
2022-11-15T11:57:44.398Z,13.7
2022-11-15T12:07:46.800Z,14.4
2022-11-15T12:17:48.782Z,14.6
2022-11-15T12:27:51.112Z,14.9
2022-11-15T12:37:52.883Z,14.7
2022-11-15T12:47:55.151Z,14.4
2022-11-15T12:57:56.799Z,14.3
2022-11-15T13:07:59.049Z,13.8
2022-11-15T13:18:01.467Z,13.9
2022-11-15T13:28:07.708Z,13.9
2022-11-15T14:18:14.318Z,13.1
2022-11-15T15:58:34.561Z,11.5
2022-11-15T16:08:47.895Z,11.3
2022-11-15T16:38:42.875Z,11.3
2022-11-15T16:48:45.137Z,11.1
2022-11-15T16:58:47.136Z,11.3
2022-11-15T17:08:49.560Z,11
2022-11-15T17:18:51.325Z,11
2022-11-15T17:28:53.637Z,11
2022-11-15T17:38:59.441Z,10.9
2022-11-15T17:48:57.531Z,10.8
2022-11-15T17:58:59.766Z,10.9
2022-11-15T18:09:01.961Z,11.7
2022-11-15T18:19:04.505Z,12
2022-11-15T18:29:06.422Z,11.8
2022-11-15T18:39:08.221Z,11.8
2022-11-15T18:49:10.602Z,12.1
2022-11-15T18:59:12.771Z,12.4
2022-11-15T19:09:14.614Z,13
2022-11-15T19:19:17.108Z,12.8
2022-11-15T19:39:20.741Z,12.6
2022-11-15T19:49:22.659Z,12.7
2022-11-15T19:59:24.944Z,12.8
2022-11-15T20:09:26.622Z,12.7
2022-11-15T20:19:29.128Z,12.6
2022-11-15T20:29:31.065Z,12.5
2022-11-15T20:39:32.733Z,12.4
2022-11-15T20:49:34.462Z,12.1
2022-11-15T20:59:36.891Z,11.8
2022-11-15T21:09:39.062Z,12.1
2022-11-15T21:19:40.734Z,11.8
2022-11-15T21:29:43.011Z,11.6
2022-11-15T21:39:45.018Z,11.5
2022-11-15T21:49:47.216Z,11.5
2022-11-15T21:59:49.446Z,11.4
2022-11-15T22:09:52.019Z,11.2
2022-11-15T22:19:53.827Z,11
2022-11-15T22:29:56.347Z,10.9
2022-11-15T22:39:58.764Z,10.8
2022-11-15T22:50:01.086Z,10.9
2022-11-15T23:00:03.019Z,11.1
2022-11-15T23:10:05.526Z,11
2022-11-15T23:20:22.306Z,10.9
2022-11-15T23:30:09.636Z,10.8
2022-11-15T23:40:11.379Z,10.7
2022-11-15T23:50:13.268Z,10.7
